Time;durP1;ratioP1;P1;durP2;ratioP2;P2;SDS_P1;SDS_P2;PMS_P1;PMS_P2;Temp;Humidity;BMP_temperature;BMP_pressure;BME280_temperature;BME280_humidity;BME280_pressure;Samples;Min_cycle;Max_cycle;Signal;HPM_P1;HPM_P2
2023/08/27 04:05:49;;;;;;;4.57;2.93;;;16.20;99.90;;;;;;5497152;22;20456;-62
2023/08/27 04:08:16;;;;;;;3.13;2.93;;;16.20;99.90;;;;;;5007322;28;20457;-62
2023/08/27 04:10:52;;;;;;;3.67;3.37;;;16.20;99.90;;;;;;5012062;28;20416;-62
2023/08/27 04:13:18;;;;;;;3.27;2.97;;;16.20;99.90;;;;;;4992254;28;20430;-62
2023/08/27 04:15:45;;;;;;;3.77;3.50;;;16.10;99.90;;;;;;4993190;28;20519;-62
2023/08/27 04:18:11;;;;;;;2.97;2.77;;;16.10;99.90;;;;;;4997163;28;20451;-63
2023/08/27 04:20:37;;;;;;;3.60;3.30;;;16.10;99.90;;;;;;4995771;28;20476;-63
2023/08/27 04:23:02;;;;;;;3.40;3.10;;;16.10;99.90;;;;;;4997844;28;20642;-62
2023/08/27 04:25:29;;;;;;;5.27;4.30;;;16.10;99.90;;;;;;5015888;28;20188;-61
2023/08/27 04:27:56;;;;;;;3.50;2.60;;;16.10;99.90;;;;;;5016462;28;20175;-62
2023/08/27 04:30:21;;;;;;;3.37;3.07;;;16.10;99.90;;;;;;5016380;28;20402;-61
2023/08/27 04:32:47;;;;;;;3.83;3.53;;;16.10;99.90;;;;;;5016373;28;20774;-61
2023/08/27 04:35:14;;;;;;;3.87;3.57;;;16.10;99.90;;;;;;5014669;28;20240;-61
2023/08/27 04:37:39;;;;;;;4.23;3.90;;;16.10;99.90;;;;;;5016160;28;20475;-61
2023/08/27 04:40:06;;;;;;;4.23;3.83;;;16.10;99.90;;;;;;5016266;28;20413;-61
2023/08/27 04:42:31;;;;;;;3.77;3.47;;;16.10;99.90;;;;;;5016276;28;20171;-61
2023/08/27 04:44:57;;;;;;;4.60;4.20;;;16.10;99.90;;;;;;5014295;28;20463;-61
2023/08/27 04:47:22;;;;;;;5.40;4.73;;;16.10;99.90;;;;;;5016326;28;20171;-61
2023/08/27 04:49:48;;;;;;;4.50;3.93;;;16.10;99.90;;;;;;5016126;28;20603;-61
2023/08/27 04:52:14;;;;;;;4.83;3.80;;;16.10;99.90;;;;;;5015920;28;20171;-61
2023/08/27 04:54:40;;;;;;;4.03;3.70;;;16.10;99.90;;;;;;5015443;28;20241;-62
2023/08/27 04:57:06;;;;;;;5.33;4.20;;;16.10;99.90;;;;;;5015720;28;20424;-62
2023/08/27 04:59:31;;;;;;;4.30;3.93;;;16.10;99.90;;;;;;5013779;28;20258;-62
2023/08/27 05:01:59;;;;;;;4.40;4.00;;;16.10;99.90;;;;;;4996642;28;20222;-62
2023/08/27 05:04:28;;;;;;;3.63;3.33;;;16.20;99.90;;;;;;4995728;28;20233;-63
2023/08/27 05:06:53;;;;;;;4.83;3.97;;;16.20;99.90;;;;;;4995985;28;20912;-62
2023/08/27 05:09:19;;;;;;;3.00;2.80;;;16.20;99.90;;;;;;4995985;28;20416;-62
2023/08/27 05:11:44;;;;;;;3.87;3.57;;;16.20;99.90;;;;;;4996399;28;20168;-61
2023/08/27 05:14:10;;;;;;;4.67;3.40;;;16.20;99.90;;;;;;4995571;28;20172;-61
2023/08/27 05:16:36;;;;;;;4.40;4.00;;;16.30;99.90;;;;;;4995892;28;20584;-61
2023/08/27 05:19:01;;;;;;;5.30;3.80;;;16.30;99.90;;;;;;4996084;28;20618;-60
2023/08/27 05:21:27;;;;;;;5.20;4.40;;;16.30;99.90;;;;;;4996082;28;20181;-60
2023/08/27 05:23:52;;;;;;;5.60;4.37;;;16.40;99.90;;;;;;4995289;28;20279;-60
2023/08/27 05:26:18;;;;;;;4.43;3.50;;;16.40;99.90;;;;;;4994386;28;20209;-60
2023/08/27 05:28:43;;;;;;;4.30;4.00;;;16.40;99.90;;;;;;4995391;28;20203;-60
2023/08/27 05:31:09;;;;;;;4.30;3.90;;;16.50;99.90;;;;;;4995563;28;20176;-61
2023/08/27 05:33:35;;;;;;;4.70;4.30;;;16.50;99.90;;;;;;4995400;28;20519;-62
2023/08/27 05:36:00;;;;;;;4.10;3.70;;;16.60;99.90;;;;;;4995477;28;20223;-61
2023/08/27 05:38:26;;;;;;;3.80;3.50;;;16.60;99.90;;;;;;4995303;28;20682;-61
2023/08/27 05:40:52;;;;;;;3.63;3.33;;;16.70;99.90;;;;;;4995908;28;20189;-60
2023/08/27 05:43:18;;;;;;;3.03;2.83;;;16.70;99.90;;;;;;4995473;28;20219;-60
2023/08/27 05:45:43;;;;;;;5.23;4.43;;;16.70;99.90;;;;;;4994934;28;20402;-59
2023/08/27 05:48:09;;;;;;;3.77;3.50;;;16.70;99.90;;;;;;4995314;28;20259;-60
2023/08/27 05:50:36;;;;;;;4.37;3.97;;;16.70;99.90;;;;;;4995224;28;20182;-60
2023/08/27 05:53:02;;;;;;;5.10;4.50;;;16.70;99.90;;;;;;4995409;28;20326;-59
2023/08/27 05:55:28;;;;;;;6.07;3.97;;;16.70;99.90;;;;;;4994756;28;20405;-59
2023/08/27 05:57:53;;;;;;;5.77;4.63;;;16.70;99.90;;;;;;4995002;28;20465;-59
2023/08/27 06:00:19;;;;;;;6.60;5.33;;;16.80;99.90;;;;;;5003573;28;20185;-59
2023/08/27 06:02:45;;;;;;;6.87;4.57;;;16.80;99.90;;;;;;5004943;28;20606;-59
2023/08/27 06:05:11;;;;;;;5.43;3.93;;;16.80;99.90;;;;;;5006950;28;20274;-59
2023/08/27 06:07:37;;;;;;;4.50;4.10;;;16.90;99.90;;;;;;5014334;28;20530;-60
2023/08/27 06:10:03;;;;;;;5.20;3.93;;;16.90;99.90;;;;;;4995347;28;20426;-59
2023/08/27 06:12:28;;;;;;;5.27;4.77;;;17.00;99.90;;;;;;4993426;28;20577;-60
2023/08/27 06:14:54;;;;;;;4.10;3.70;;;17.00;99.90;;;;;;4994510;28;20405;-59
2023/08/27 06:17:20;;;;;;;4.37;3.90;;;17.00;99.90;;;;;;4994574;28;20288;-59
2023/08/27 06:19:45;;;;;;;4.90;4.30;;;17.00;99.90;;;;;;4994697;28;20164;-60
2023/08/27 06:22:11;;;;;;;4.97;4.47;;;17.10;99.90;;;;;;5013160;28;20546;-60
2023/08/27 06:24:36;;;;;;;5.23;4.73;;;17.10;99.90;;;;;;5005489;28;20203;-59
2023/08/27 06:27:02;;;;;;;4.60;4.20;;;17.20;99.90;;;;;;4985373;28;20257;-61
2023/08/27 06:29:28;;;;;;;5.77;4.50;;;17.20;99.90;;;;;;4983598;28;20183;-60
2023/08/27 06:31:53;;;;;;;5.97;5.40;;;17.20;99.90;;;;;;4993691;28;20177;-59
2023/08/27 06:34:19;;;;;;;7.10;6.13;;;17.20;99.90;;;;;;4992339;28;20196;-60
2023/08/27 06:36:44;;;;;;;5.40;4.83;;;17.20;99.90;;;;;;4993846;28;20179;-59
2023/08/27 06:39:10;;;;;;;4.63;4.23;;;17.30;99.90;;;;;;4993704;28;20180;-62
2023/08/27 06:41:35;;;;;;;4.90;4.20;;;17.30;99.90;;;;;;4994380;28;20246;-62
2023/08/27 06:44:01;;;;;;;4.57;3.83;;;17.30;99.90;;;;;;4993668;28;20188;-63
2023/08/27 06:46:27;;;;;;;6.17;4.17;;;17.30;99.90;;;;;;4993592;28;20197;-62
2023/08/27 06:48:52;;;;;;;6.70;5.47;;;17.40;99.90;;;;;;4993804;28;20179;-65
2023/08/27 06:51:18;;;;;;;5.50;4.80;;;17.40;99.90;;;;;;4992671;28;20193;-63
2023/08/27 06:53:44;;;;;;;3.63;3.27;;;17.40;99.90;;;;;;4994118;28;20164;-61
2023/08/27 06:56:09;;;;;;;4.67;4.27;;;17.40;99.90;;;;;;4993770;28;20199;-59
2023/08/27 06:58:35;;;;;;;5.00;4.30;;;17.50;99.90;;;;;;4994231;28;20221;-59
2023/08/27 07:01:05;;;;;;;4.63;4.17;;;17.50;99.90;;;;;;4993600;28;20293;-61
2023/08/27 07:03:32;;;;;;;3.07;2.87;;;17.40;99.90;;;;;;4993832;28;20484;-64
2023/08/27 07:05:57;;;;;;;2.93;2.67;;;17.40;99.90;;;;;;4992617;28;20495;-61
2023/08/27 07:08:23;;;;;;;2.23;2.03;;;17.40;99.90;;;;;;4994189;28;20931;-60
2023/08/27 07:10:48;;;;;;;2.00;1.90;;;17.40;99.90;;;;;;4993502;28;20193;-61
2023/08/27 07:13:14;;;;;;;1.77;1.70;;;17.50;99.90;;;;;;4993971;28;20178;-62
2023/08/27 07:15:40;;;;;;;1.87;1.73;;;17.50;99.90;;;;;;4993302;28;20240;-59
2023/08/27 07:18:05;;;;;;;1.90;1.80;;;17.50;99.90;;;;;;4993893;28;20209;-61
2023/08/27 07:20:32;;;;;;;1.77;1.67;;;17.60;99.90;;;;;;4993231;28;20175;-61
2023/08/27 07:22:58;;;;;;;2.73;2.53;;;17.60;99.90;;;;;;4993565;28;20178;-60
2023/08/27 07:25:24;;;;;;;1.60;1.50;;;17.60;99.90;;;;;;4993660;28;20405;-60
2023/08/27 07:27:49;;;;;;;1.93;1.83;;;17.60;99.90;;;;;;4993994;28;20521;-60
2023/08/27 07:30:15;;;;;;;2.73;2.60;;;17.60;99.90;;;;;;4993157;28;20237;-61
2023/08/27 07:32:41;;;;;;;1.73;1.63;;;17.60;99.90;;;;;;4993888;28;20649;-64
2023/08/27 07:35:07;;;;;;;1.50;1.40;;;17.60;99.90;;;;;;4993317;28;20225;-62
2023/08/27 07:37:33;;;;;;;1.70;1.60;;;17.60;99.90;;;;;;4993953;28;20281;-63
2023/08/27 07:39:58;;;;;;;1.50;1.40;;;17.70;99.90;;;;;;4993517;28;20844;-63
2023/08/27 07:42:24;;;;;;;1.20;1.20;;;17.80;99.90;;;;;;4992209;28;20270;-63
2023/08/27 07:44:50;;;;;;;1.63;1.53;;;17.90;99.90;;;;;;4993351;28;20191;-61
2023/08/27 07:47:15;;;;;;;0.90;0.90;;;18.00;99.90;;;;;;4993567;28;20167;-61
2023/08/27 07:49:41;;;;;;;1.40;1.30;;;18.10;99.90;;;;;;4993473;28;20232;-58
2023/08/27 07:52:06;;;;;;;1.30;1.20;;;18.10;99.90;;;;;;4997256;28;20716;-60
2023/08/27 07:54:32;;;;;;;1.47;1.07;;;18.10;99.90;;;;;;4996954;28;20176;-61
2023/08/27 07:56:58;;;;;;;1.50;1.40;;;18.20;99.90;;;;;;4997283;28;20211;-60
2023/08/27 07:59:23;;;;;;;1.70;1.67;;;18.30;99.90;;;;;;4997179;28;20226;-61
2023/08/27 08:01:49;;;;;;;1.70;1.60;;;18.30;99.90;;;;;;4996737;28;20179;-64
2023/08/27 08:04:14;;;;;;;0.90;0.90;;;18.30;99.90;;;;;;4996438;28;20190;-62
2023/08/27 08:06:40;;;;;;;1.77;1.57;;;18.30;99.90;;;;;;4996843;28;20191;-63
2023/08/27 08:09:06;;;;;;;1.10;1.00;;;18.30;99.90;;;;;;4995720;28;20176;-61
2023/08/27 08:11:31;;;;;;;0.80;0.80;;;18.30;99.90;;;;;;4995955;28;20163;-64
2023/08/27 08:13:58;;;;;;;1.33;1.10;;;18.20;99.90;;;;;;4994572;28;20188;-64
2023/08/27 08:16:24;;;;;;;1.80;1.30;;;18.20;99.90;;;;;;4996276;28;20604;-65
2023/08/27 08:18:50;;;;;;;1.07;1.00;;;18.10;99.90;;;;;;4996727;28;20524;-61
2023/08/27 08:21:17;;;;;;;1.60;1.50;;;18.10;99.90;;;;;;4996612;28;20434;-63
2023/08/27 08:23:42;;;;;;;1.27;1.27;;;18.10;99.90;;;;;;4996361;28;20421;-60
2023/08/27 08:26:09;;;;;;;1.10;1.10;;;18.10;99.90;;;;;;4996875;28;20431;-63
2023/08/27 08:28:34;;;;;;;1.50;0.90;;;18.10;99.90;;;;;;4997032;28;20519;-60
2023/08/27 08:31:00;;;;;;;1.30;1.27;;;18.10;99.90;;;;;;4996538;28;20518;-63
2023/08/27 08:33:25;;;;;;;1.47;1.20;;;18.10;99.90;;;;;;4996068;28;20672;-60
2023/08/27 08:35:51;;;;;;;1.97;1.60;;;18.10;99.90;;;;;;4996349;28;20693;-59
2023/08/27 08:38:16;;;;;;;1.37;1.10;;;18.20;99.90;;;;;;4996800;28;20202;-58
2023/08/27 08:40:48;;;;;;;1.37;1.00;;;18.30;99.90;;;;;;4996287;28;20178;-59
2023/08/27 08:43:28;;;;;;;2.83;1.60;;;18.30;99.90;;;;;;4996021;28;20537;-59
2023/08/27 08:46:03;;;;;;;1.10;1.10;;;18.30;99.90;;;;;;4996164;28;20809;-59
2023/08/27 08:48:33;;;;;;;1.00;0.90;;;18.30;99.90;;;;;;4996542;28;20437;-59
2023/08/27 08:51:03;;;;;;;0.97;0.97;;;18.40;99.90;;;;;;4996166;28;20906;-64
2023/08/27 08:53:32;;;;;;;0.87;0.83;;;18.40;99.90;;;;;;4995713;28;20434;-63
2023/08/27 08:55:58;;;;;;;0.77;0.77;;;18.50;99.90;;;;;;4995996;28;20417;-62
2023/08/27 08:58:29;;;;;;;1.60;0.83;;;18.60;99.90;;;;;;4996157;28;20433;-60
2023/08/27 09:00:57;;;;;;;1.67;1.57;;;18.70;99.90;;;;;;4996140;28;20824;-62
2023/08/27 09:03:25;;;;;;;1.50;1.40;;;18.90;99.90;;;;;;4977942;28;20907;-62
2023/08/27 09:05:53;;;;;;;0.63;0.63;;;19.10;99.90;;;;;;4995868;28;20439;-63
2023/08/27 09:08:19;;;;;;;1.47;0.70;;;19.30;99.90;;;;;;4996372;28;20422;-66
2023/08/27 09:10:47;;;;;;;0.83;0.83;;;19.40;99.90;;;;;;4996003;28;20387;-62
2023/08/27 09:13:18;;;;;;;0.80;0.80;;;19.60;99.90;;;;;;4995683;28;20431;-63
2023/08/27 09:15:44;;;;;;;0.70;0.70;;;19.60;99.90;;;;;;4994305;28;20409;-65
2023/08/27 09:18:10;;;;;;;0.90;0.90;;;19.70;99.90;;;;;;4995704;28;20429;-61
2023/08/27 09:20:36;;;;;;;0.57;0.57;;;19.80;99.90;;;;;;4995790;28;20654;-64
2023/08/27 09:23:02;;;;;;;0.80;0.80;;;19.90;99.90;;;;;;4994737;28;20634;-67
2023/08/27 09:25:27;;;;;;;0.80;0.80;;;20.10;99.90;;;;;;4993683;28;20477;-65
2023/08/27 09:27:53;;;;;;;2.50;0.90;;;20.10;99.90;;;;;;5008830;28;20185;-65
2023/08/27 09:30:21;;;;;;;0.90;0.90;;;20.10;99.90;;;;;;5015160;28;20171;-67
2023/08/27 09:32:47;;;;;;;2.10;1.47;;;20.20;99.90;;;;;;4995182;28;20311;-62
2023/08/27 09:35:13;;;;;;;2.17;1.80;;;20.20;99.90;;;;;;4995086;28;20476;-59
2023/08/27 09:37:41;;;;;;;1.60;1.50;;;20.20;99.90;;;;;;4995415;28;20939;-68
2023/08/27 09:40:10;;;;;;;1.00;0.90;;;20.30;99.90;;;;;;4993954;28;20176;-65
2023/08/27 09:42:40;;;;;;;1.73;0.90;;;20.40;99.90;;;;;;4995111;28;20427;-62
2023/08/27 09:45:06;;;;;;;1.53;1.43;;;20.50;99.90;;;;;;4993709;28;20411;-62
2023/08/27 09:47:36;;;;;;;1.10;1.10;;;20.80;99.90;;;;;;4995427;28;20421;-61
2023/08/27 09:50:13;;;;;;;1.30;1.20;;;21.00;99.90;;;;;;4995308;28;20391;-61
2023/08/27 09:52:39;;;;;;;1.40;0.73;;;21.20;99.90;;;;;;4995079;28;20430;-59
2023/08/27 09:55:13;;;;;;;0.80;0.80;;;21.30;99.90;;;;;;4993456;28;20489;-60
2023/08/27 09:57:38;;;;;;;0.73;0.73;;;21.30;99.90;;;;;;4995340;28;20542;-62
2023/08/27 10:00:09;;;;;;;1.87;1.67;;;21.30;99.90;;;;;;4994832;28;20449;-60
2023/08/27 10:02:35;;;;;;;1.93;1.03;;;21.50;99.90;;;;;;4993934;28;20168;-62
2023/08/27 10:05:01;;;;;;;1.00;1.00;;;21.60;99.90;;;;;;4993019;28;20497;-60
2023/08/27 10:07:27;;;;;;;0.90;0.90;;;21.90;99.90;;;;;;4994934;28;20517;-62
2023/08/27 10:09:53;;;;;;;1.30;1.17;;;22.10;99.90;;;;;;4994973;28;20509;-59
2023/08/27 10:12:21;;;;;;;0.90;0.90;;;22.10;99.90;;;;;;4994108;28;20232;-68
2023/08/27 10:14:47;;;;;;;1.13;1.10;;;22.20;99.90;;;;;;4993507;28;20444;-59
2023/08/27 10:17:13;;;;;;;1.00;0.87;;;22.30;99.90;;;;;;4994786;28;20775;-65
2023/08/27 10:19:39;;;;;;;0.93;0.83;;;22.40;99.90;;;;;;4994967;28;20374;-61
2023/08/27 10:22:06;;;;;;;1.20;1.10;;;22.30;99.90;;;;;;4993210;28;20407;-61
2023/08/27 10:24:33;;;;;;;0.90;0.90;;;22.40;99.90;;;;;;4992659;28;20428;-65
2023/08/27 10:27:06;;;;;;;1.20;1.10;;;22.40;99.90;;;;;;4994679;28;20385;-66
2023/08/27 10:29:33;;;;;;;1.13;1.07;;;22.50;99.90;;;;;;4994839;28;20381;-64
2023/08/27 10:31:59;;;;;;;1.30;1.20;;;22.50;99.90;;;;;;4994032;28;20761;-63
2023/08/27 10:34:28;;;;;;;1.57;1.47;;;22.60;99.90;;;;;;4994074;28;20388;-66
2023/08/27 10:37:04;;;;;;;1.50;1.40;;;22.60;99.90;;;;;;4994364;28;20172;-63
2023/08/27 10:39:32;;;;;;;1.37;1.27;;;22.50;99.90;;;;;;4994573;28;20475;-67
2023/08/27 10:41:58;;;;;;;1.50;1.37;;;22.40;99.90;;;;;;4993504;28;21019;-67
2023/08/27 10:44:23;;;;;;;1.40;1.30;;;22.40;99.90;;;;;;4994002;28;20393;-64
2023/08/27 10:47:21;;;;;;;1.40;1.30;;;22.30;99.90;;;;;;4994398;28;20252;-62
2023/08/27 10:49:51;;;;;;;1.47;1.30;;;22.50;99.90;;;;;;4982220;28;20183;-69
2023/08/27 10:52:22;;;;;;;1.30;1.20;;;22.80;99.90;;;;;;4984128;28;20808;-67
2023/08/27 10:54:57;;;;;;;1.70;1.60;;;22.80;99.90;;;;;;4992504;28;20948;-65
2023/08/27 10:57:23;;;;;;;0.93;0.93;;;22.70;99.90;;;;;;4994114;28;20424;-66
2023/08/27 10:59:51;;;;;;;1.70;1.40;;;22.70;99.90;;;;;;4994165;28;20403;-65
2023/08/27 11:02:17;;;;;;;1.13;1.13;;;22.70;99.90;;;;;;4992396;28;20426;-67
2023/08/27 11:04:48;;;;;;;1.90;1.10;;;22.70;99.90;;;;;;4993579;28;20479;-66
2023/08/27 11:07:19;;;;;;;1.03;1.03;;;22.70;99.90;;;;;;4974507;28;20858;-69
2023/08/27 11:09:55;;;;;;;1.00;1.00;;;22.60;99.90;;;;;;4974598;28;20486;-63
2023/08/27 11:12:32;;;;;;;1.80;1.70;;;22.50;99.90;;;;;;4974722;28;20737;-63
2023/08/27 11:15:11;;;;;;;1.10;1.10;;;22.30;99.90;;;;;;4974897;28;20777;-67
2023/08/27 11:17:38;;;;;;;1.10;1.10;;;22.30;99.90;;;;;;4993777;28;20955;-61
2023/08/27 11:20:25;;;;;;;1.27;1.17;;;22.20;99.90;;;;;;4993956;28;20381;-63
2023/08/27 11:22:55;;;;;;;1.00;1.00;;;22.20;99.90;;;;;;4993512;28;20418;-62
2023/08/27 11:25:21;;;;;;;1.33;1.30;;;22.10;99.90;;;;;;4994672;28;20931;-62
2023/08/27 11:27:48;;;;;;;3.70;1.63;;;21.90;99.90;;;;;;4997364;28;20434;-63
2023/08/27 11:30:15;;;;;;;1.37;1.27;;;21.90;99.90;;;;;;4998070;28;20732;-63
2023/08/27 11:32:43;;;;;;;1.37;1.30;;;21.60;99.90;;;;;;4996682;28;20429;-61
2023/08/27 11:35:11;;;;;;;1.00;1.00;;;21.60;99.90;;;;;;4997143;28;20410;-63
2023/08/27 11:37:38;;;;;;;1.83;1.50;;;21.60;99.90;;;;;;4996463;28;20508;-62
2023/08/27 11:40:16;;;;;;;1.40;1.40;;;21.80;99.90;;;;;;4995847;28;20378;-62
2023/08/27 11:42:49;;;;;;;1.63;1.30;;;22.00;99.90;;;;;;4995781;28;20783;-62
2023/08/27 11:45:15;;;;;;;1.40;1.33;;;22.20;99.90;;;;;;4995990;28;20477;-61
2023/08/27 11:47:42;;;;;;;2.03;1.50;;;22.40;99.90;;;;;;4996795;28;20424;-62
2023/08/27 11:50:08;;;;;;;1.20;1.20;;;22.40;99.90;;;;;;4994424;28;20707;-62
2023/08/27 11:52:36;;;;;;;2.80;1.30;;;22.50;99.90;;;;;;4995422;28;20393;-64
2023/08/27 11:55:03;;;;;;;0.97;0.97;;;22.70;99.90;;;;;;4994978;28;20342;-64
2023/08/27 11:57:29;;;;;;;1.43;1.33;;;22.80;99.90;;;;;;4995868;28;20752;-63
2023/08/27 11:59:55;;;;;;;1.33;1.30;;;22.80;99.90;;;;;;4996193;28;20396;-62
2023/08/27 12:02:21;;;;;;;1.77;1.67;;;22.80;99.90;;;;;;4996546;28;20497;-66
2023/08/27 12:04:47;;;;;;;1.53;1.43;;;22.70;99.90;;;;;;4996542;28;20484;-63
2023/08/27 12:07:26;;;;;;;1.30;1.20;;;22.60;99.90;;;;;;4996786;28;20191;-63
2023/08/27 12:09:52;;;;;;;1.37;1.30;;;22.50;99.90;;;;;;4995832;28;20171;-63
2023/08/27 12:12:17;;;;;;;1.60;1.50;;;22.60;99.90;;;;;;4996882;28;20464;-60
2023/08/27 12:14:45;;;;;;;1.17;1.07;;;22.60;99.90;;;;;;4996602;28;20196;-63
2023/08/27 12:17:11;;;;;;;2.57;1.60;;;22.70;99.90;;;;;;4997069;28;20196;-64
2023/08/27 12:19:39;;;;;;;1.63;1.57;;;22.80;99.90;;;;;;4997056;28;20408;-63
2023/08/27 12:22:06;;;;;;;1.70;1.50;;;23.00;99.90;;;;;;4996706;28;20175;-63
2023/08/27 12:24:36;;;;;;;1.53;1.43;;;23.00;99.90;;;;;;4996475;28;20845;-62
2023/08/27 12:27:07;;;;;;;1.40;1.30;;;23.10;99.90;;;;;;4995126;28;20423;-64
2023/08/27 12:29:36;;;;;;;1.03;1.00;;;23.20;99.90;;;;;;4996840;28;20982;-63
2023/08/27 12:32:16;;;;;;;1.90;1.03;;;23.40;99.90;;;;;;4996461;28;20429;-63
2023/08/27 12:34:45;;;;;;;1.60;1.37;;;23.40;99.90;;;;;;4995149;28;20509;-62
2023/08/27 12:37:12;;;;;;;1.70;1.60;;;23.40;99.90;;;;;;4995274;28;20788;-62
2023/08/27 12:39:40;;;;;;;1.50;1.40;;;23.40;99.90;;;;;;4996536;28;20456;-62
2023/08/27 12:42:06;;;;;;;1.20;1.20;;;23.40;99.90;;;;;;4996793;28;20434;-63
2023/08/27 12:44:35;;;;;;;2.47;1.37;;;23.30;99.90;;;;;;4995991;28;20423;-63
2023/08/27 12:47:02;;;;;;;1.10;1.10;;;23.30;99.90;;;;;;4996086;28;20427;-61
2023/08/27 12:49:28;;;;;;;1.20;1.10;;;23.20;99.90;;;;;;4996257;28;20403;-64
2023/08/27 12:51:55;;;;;;;1.60;1.50;;;23.20;99.90;;;;;;4996617;28;20732;-62
2023/08/27 12:54:20;;;;;;;1.47;1.40;;;23.20;99.90;;;;;;4996003;28;20431;-62
2023/08/27 12:56:47;;;;;;;1.40;1.30;;;23.20;99.90;;;;;;4996059;28;20889;-62
2023/08/27 12:59:13;;;;;;;1.23;1.13;;;23.10;99.90;;;;;;4996403;28;20253;-63
2023/08/27 13:01:39;;;;;;;1.30;1.20;;;23.10;99.90;;;;;;4996407;28;20405;-63
2023/08/27 13:04:06;;;;;;;1.20;1.20;;;23.00;99.90;;;;;;4995939;28;20385;-63
2023/08/27 13:06:32;;;;;;;1.00;1.00;;;22.80;99.90;;;;;;4995730;28;20548;-62
2023/08/27 13:08:57;;;;;;;1.90;1.40;;;22.80;99.90;;;;;;4996514;28;20864;-63
2023/08/27 13:11:23;;;;;;;1.20;1.10;;;22.70;99.90;;;;;;4995196;28;20191;-61
2023/08/27 13:13:50;;;;;;;1.17;1.17;;;22.70;99.90;;;;;;4995890;28;20226;-64
2023/08/27 13:16:16;;;;;;;1.10;1.10;;;22.60;99.90;;;;;;4995725;28;20191;-64
2023/08/27 13:18:41;;;;;;;1.50;1.40;;;22.50;99.90;;;;;;4995957;28;20421;-66
2023/08/27 13:21:07;;;;;;;1.47;1.00;;;22.60;99.90;;;;;;4995936;28;20199;-63
2023/08/27 13:23:33;;;;;;;1.53;1.40;;;22.50;99.90;;;;;;4995837;28;20198;-63
2023/08/27 13:25:58;;;;;;;0.90;0.90;;;22.70;99.90;;;;;;4995395;28;20194;-62
2023/08/27 13:28:24;;;;;;;0.90;0.80;;;22.80;99.90;;;;;;4993347;28;20183;-62
2023/08/27 13:30:49;;;;;;;1.33;1.13;;;22.80;99.90;;;;;;4980649;28;20674;-63
2023/08/27 13:33:15;;;;;;;0.90;0.90;;;22.80;99.90;;;;;;4992163;28;20183;-62
2023/08/27 13:35:40;;;;;;;1.43;1.33;;;22.70;99.90;;;;;;4995220;28;20642;-61
2023/08/27 13:38:06;;;;;;;0.97;0.80;;;22.70;99.90;;;;;;4995008;28;20237;-63
2023/08/27 13:40:33;;;;;;;1.30;1.20;;;22.60;99.90;;;;;;4995603;28;20168;-63
2023/08/27 13:42:59;;;;;;;1.13;1.00;;;22.60;99.90;;;;;;4995567;28;20415;-63
2023/08/27 13:45:25;;;;;;;1.00;0.90;;;22.40;99.90;;;;;;4995118;28;20420;-62
2023/08/27 13:47:50;;;;;;;0.80;0.80;;;22.40;99.90;;;;;;4994495;28;20187;-62
2023/08/27 13:50:17;;;;;;;1.20;1.10;;;22.30;99.90;;;;;;4991492;28;20175;-62
2023/08/27 13:52:43;;;;;;;1.10;1.00;;;22.30;99.90;;;;;;4993980;28;20179;-64
2023/08/27 13:55:10;;;;;;;0.90;0.90;;;22.30;99.90;;;;;;4994681;28;20456;-64
2023/08/27 13:57:36;;;;;;;0.90;0.90;;;22.10;99.90;;;;;;4994777;28;20440;-63
2023/08/27 14:00:02;;;;;;;1.10;0.90;;;22.10;99.90;;;;;;4994825;28;20500;-63
2023/08/27 14:02:28;;;;;;;0.80;0.80;;;22.00;99.90;;;;;;4995151;28;20166;-64
2023/08/27 14:04:53;;;;;;;1.00;1.00;;;22.00;99.90;;;;;;4994535;28;20415;-64
2023/08/27 14:07:19;;;;;;;1.03;1.00;;;22.00;99.90;;;;;;4994465;28;20191;-62
2023/08/27 14:09:44;;;;;;;0.80;0.77;;;21.90;99.90;;;;;;4994983;28;20631;-60
2023/08/27 14:12:10;;;;;;;1.07;0.97;;;21.80;99.90;;;;;;4993767;28;20176;-67
2023/08/27 14:14:36;;;;;;;1.07;1.00;;;21.70;99.90;;;;;;4994497;28;20192;-61
2023/08/27 14:17:01;;;;;;;1.00;0.90;;;21.60;99.90;;;;;;4994318;28;20218;-62
2023/08/27 14:19:28;;;;;;;0.83;0.70;;;21.40;99.90;;;;;;4994791;28;20637;-61
2023/08/27 14:21:53;;;;;;;1.83;1.20;;;21.30;99.90;;;;;;4994711;28;20178;-60
2023/08/27 14:24:19;;;;;;;1.30;1.20;;;21.20;99.90;;;;;;4994351;28;20386;-60
2023/08/27 14:26:44;;;;;;;0.90;0.83;;;21.00;99.90;;;;;;4993095;28;20172;-60
2023/08/27 14:29:10;;;;;;;0.70;0.70;;;20.80;99.90;;;;;;4994531;28;20636;-60
2023/08/27 14:31:36;;;;;;;1.67;1.37;;;20.50;99.90;;;;;;4994521;28;20168;-58
2023/08/27 14:34:05;;;;;;;1.07;1.07;;;20.00;99.90;;;;;;4994325;28;20171;-62
2023/08/27 14:36:31;;;;;;;1.20;1.10;;;19.50;99.90;;;;;;4994160;28;20223;-65
2023/08/27 14:38:58;;;;;;;1.30;1.20;;;19.00;99.90;;;;;;4994290;28;20461;-63
2023/08/27 14:41:25;;;;;;;1.30;1.20;;;18.50;99.90;;;;;;4994266;28;20400;-62
2023/08/27 14:43:50;;;;;;;1.20;1.20;;;17.90;99.90;;;;;;4994156;28;20385;-62
2023/08/27 14:46:16;;;;;;;1.17;1.10;;;17.50;99.90;;;;;;4993897;28;20495;-64
2023/08/27 14:48:41;;;;;;;1.20;1.10;;;17.30;99.90;;;;;;4993942;28;20179;-63
2023/08/27 14:51:07;;;;;;;1.83;1.73;;;17.20;99.90;;;;;;4994350;28;20265;-65
2023/08/27 14:53:33;;;;;;;1.43;1.20;;;17.00;99.90;;;;;;4993959;28;20576;-64
2023/08/27 14:55:58;;;;;;;1.27;1.17;;;16.90;99.90;;;;;;4993789;28;20192;-63
2023/08/27 14:58:24;;;;;;;3.23;1.20;;;16.90;99.90;;;;;;4993980;28;20201;-65
2023/08/27 15:00:49;;;;;;;1.37;1.27;;;16.80;99.90;;;;;;4993584;28;20567;-67
2023/08/27 15:03:15;;;;;;;1.13;1.10;;;16.80;99.90;;;;;;4994308;28;20170;-69
2023/08/27 15:05:41;;;;;;;2.63;2.43;;;16.70;99.90;;;;;;4993112;28;20191;-69
2023/08/27 15:08:07;;;;;;;1.63;1.53;;;16.70;99.90;;;;;;4994095;28;20177;-68
2023/08/27 15:10:32;;;;;;;2.17;1.80;;;16.60;99.90;;;;;;4992973;28;20474;-67
2023/08/27 15:12:58;;;;;;;1.27;1.17;;;16.70;99.90;;;;;;4993764;28;20187;-69
2023/08/27 15:15:23;;;;;;;1.87;1.27;;;16.70;99.90;;;;;;4997483;28;20196;-65
2023/08/27 15:17:49;;;;;;;1.53;1.43;;;16.70;99.90;;;;;;5013673;28;20287;-69
2023/08/27 15:20:15;;;;;;;3.97;2.63;;;16.70;99.90;;;;;;5002664;28;20179;-66
2023/08/27 15:22:41;;;;;;;3.27;2.60;;;16.70;99.90;;;;;;4993983;28;20401;-64
2023/08/27 15:25:07;;;;;;;1.93;1.70;;;16.70;99.90;;;;;;4993280;28;20428;-66
2023/08/27 15:27:32;;;;;;;2.07;1.80;;;16.70;99.90;;;;;;4995194;28;20687;-65
2023/08/27 15:29:58;;;;;;;1.50;1.40;;;16.70;99.90;;;;;;5013341;28;20407;-67
2023/08/27 15:32:24;;;;;;;2.13;2.03;;;16.70;99.90;;;;;;5013243;28;20172;-63
2023/08/27 15:34:49;;;;;;;1.60;1.50;;;16.70;99.90;;;;;;5011618;28;20514;-64
2023/08/27 15:37:15;;;;;;;2.07;1.87;;;16.70;99.90;;;;;;5013253;28;20204;-62
2023/08/27 15:39:40;;;;;;;1.60;1.50;;;16.70;99.90;;;;;;5013352;28;20339;-64
2023/08/27 15:42:06;;;;;;;2.00;1.83;;;16.70;99.90;;;;;;5013271;28;20165;-64
2023/08/27 15:44:32;;;;;;;1.40;1.40;;;16.80;99.90;;;;;;5012753;28;20200;-68
2023/08/27 15:46:57;;;;;;;2.80;2.13;;;16.80;99.90;;;;;;4995975;28;20197;-63
2023/08/27 15:49:23;;;;;;;4.97;2.00;;;16.80;99.90;;;;;;4993685;28;20531;-67
2023/08/27 15:51:48;;;;;;;4.97;1.63;;;16.80;99.90;;;;;;4993306;28;20174;-63
2023/08/27 15:54:14;;;;;;;2.03;1.53;;;16.80;99.90;;;;;;4993064;28;20176;-65
2023/08/27 15:56:40;;;;;;;1.80;1.70;;;16.90;99.90;;;;;;4993051;28;20616;-64
2023/08/27 15:59:05;;;;;;;2.53;2.27;;;16.80;99.90;;;;;;4991015;28;20211;-66
2023/08/27 16:01:31;;;;;;;2.20;1.83;;;16.80;99.90;;;;;;5013103;28;20179;-60
2023/08/27 16:03:56;;;;;;;2.10;1.93;;;16.80;99.90;;;;;;5004125;28;20210;-63
2023/08/27 16:06:22;;;;;;;1.60;1.50;;;16.80;99.90;;;;;;4991850;28;20208;-61
2023/08/27 16:08:48;;;;;;;1.70;1.60;;;16.80;99.90;;;;;;4993556;28;20220;-61
2023/08/27 16:11:13;;;;;;;2.30;2.20;;;16.80;99.90;;;;;;4994655;28;20187;-62
2023/08/27 16:13:39;;;;;;;1.70;1.60;;;16.80;99.90;;;;;;4996312;28;20187;-61
2023/08/27 16:16:05;;;;;;;1.93;1.83;;;16.80;99.90;;;;;;5004603;28;20578;-62
2023/08/27 16:18:31;;;;;;;2.20;1.93;;;16.80;99.90;;;;;;5015909;28;20299;-62
2023/08/27 16:20:57;;;;;;;4.03;2.00;;;16.80;99.90;;;;;;5016033;28;20519;-63
2023/08/27 16:23:23;;;;;;;1.93;1.83;;;16.80;99.90;;;;;;5015693;28;20382;-61
2023/08/27 16:25:49;;;;;;;2.60;2.40;;;16.80;99.90;;;;;;5016066;28;20459;-65
2023/08/27 16:28:15;;;;;;;4.70;2.07;;;16.80;99.90;;;;;;5013554;28;20419;-65
2023/08/27 16:30:41;;;;;;;3.20;1.87;;;16.80;99.90;;;;;;5010304;28;20968;-67
2023/08/27 16:33:07;;;;;;;2.50;1.90;;;16.80;99.90;;;;;;4994955;28;20482;-64
2023/08/27 16:35:32;;;;;;;1.93;1.83;;;16.80;99.90;;;;;;4995290;28;20231;-68
2023/08/27 16:38:01;;;;;;;1.80;1.60;;;16.80;99.90;;;;;;4994306;28;20212;-64
2023/08/27 16:40:37;;;;;;;3.30;2.50;;;16.80;99.90;;;;;;4994441;28;20545;-66
2023/08/27 16:43:04;;;;;;;1.80;1.70;;;16.70;99.90;;;;;;4996386;28;20387;-65
2023/08/27 16:45:30;;;;;;;2.07;1.97;;;16.80;99.90;;;;;;4996199;28;20784;-66
2023/08/27 16:47:55;;;;;;;2.30;2.17;;;16.80;99.90;;;;;;4996614;28;20387;-66
2023/08/27 16:50:21;;;;;;;2.47;2.27;;;16.80;99.90;;;;;;4996409;28;20915;-63